Time;durP1;ratioP1;P1;durP2;ratioP2;P2;SDS_P1;SDS_P2;PMS_P1;PMS_P2;Temp;Humidity;BMP_temperature;BMP_pressure;BME280_temperature;BME280_humidity;BME280_pressure;Samples;Min_cycle;Max_cycle;Signal;HPM_P1;HPM_P2
2021/08/01 00:00:20;;;;;;;1.67;1.52;;;15.60;94.90;;;14.46;100.00;99875.97;3548749;39;100780;-84
2021/08/01 00:02:47;;;;;;;0.93;0.82;;;15.60;94.70;;;14.36;100.00;99873.56;3538807;39;101363;-82
2021/08/01 00:05:14;;;;;;;0.85;0.85;;;15.60;94.70;;;14.40;100.00;99887.50;3538209;39;102384;-83
2021/08/01 00:07:42;;;;;;;1.45;1.30;;;15.60;94.70;;;14.44;100.00;99880.72;3548093;39;100147;-81
2021/08/01 00:10:11;;;;;;;2.28;1.30;;;15.60;94.70;;;14.46;100.00;99875.97;3543702;39;102203;-81
2021/08/01 00:12:40;;;;;;;2.13;1.10;;;15.60;94.70;;;14.55;100.00;99872.94;3537744;39;101281;-81
2021/08/01 00:15:11;;;;;;;1.38;1.00;;;15.90;94.80;;;14.47;100.00;99865.00;3543232;39;101330;-84
2021/08/01 00:17:38;;;;;;;1.83;1.25;;;15.60;94.70;;;14.46;100.00;99851.75;3538638;39;100227;-82
2021/08/01 00:20:08;;;;;;;2.78;0.90;;;15.60;94.50;;;14.46;100.00;99846.38;3542693;39;102318;-82
2021/08/01 00:22:35;;;;;;;1.33;0.93;;;15.60;94.50;;;14.42;100.00;99851.31;3535560;39;103581;-83
2021/08/01 00:25:02;;;;;;;1.50;1.15;;;15.70;94.50;;;14.38;100.00;99845.44;3535498;39;103084;-83
2021/08/01 00:27:33;;;;;;;1.83;0.98;;;15.60;94.40;;;14.35;100.00;99848.50;3537638;39;100070;-83
2021/08/01 00:30:00;;;;;;;1.55;1.13;;;15.60;94.40;;;14.29;100.00;99843.06;3537180;39;101028;-80
2021/08/01 00:32:28;;;;;;;1.42;1.30;;;15.70;94.70;;;14.28;100.00;99846.78;3536341;39;101413;-83
2021/08/01 00:34:57;;;;;;;1.10;1.05;;;15.60;94.40;;;14.23;100.00;99835.75;3564543;39;103106;-80
2021/08/01 00:37:25;;;;;;;1.55;1.30;;;15.60;94.40;;;14.18;100.00;99835.50;3549263;39;100118;-83
2021/08/01 00:39:52;;;;;;;2.42;1.08;;;15.60;94.70;;;14.22;100.00;99842.16;3548507;39;100634;-83
2021/08/01 00:42:19;;;;;;;1.38;1.27;;;15.60;94.80;;;14.18;100.00;99840.91;3548253;39;101144;-84
2021/08/01 00:44:47;;;;;;;1.25;0.95;;;15.60;95.20;;;14.27;100.00;99845.94;3546007;39;101804;-87
2021/08/01 00:47:14;;;;;;;0.80;0.80;;;15.70;95.40;;;14.38;100.00;99834.66;3546127;39;100248;-82
2021/08/01 00:49:44;;;;;;;4.20;1.23;;;15.60;95.60;;;14.33;100.00;99837.13;3543552;39;102590;-81
2021/08/01 00:52:12;;;;;;;1.10;1.00;;;15.60;95.70;;;14.27;100.00;99837.03;3535571;39;103007;-81
2021/08/01 00:54:40;;;;;;;1.23;1.00;;;15.60;95.70;;;14.25;100.00;99839.09;3535094;39;102075;-80
2021/08/01 00:57:08;;;;;;;2.75;0.98;;;16.10;95.80;;;14.09;100.00;99832.13;3543577;39;99987;-80
2021/08/01 00:59:40;;;;;;;2.55;1.20;;;15.20;95.90;;;14.05;100.00;99830.00;3539959;39;103233;-81
2021/08/01 01:02:13;;;;;;;1.23;0.93;;;15.50;96.10;;;13.99;100.00;99834.28;3546724;39;100758;-80
2021/08/01 01:04:54;;;;;;;2.33;1.23;;;16.60;96.90;;;14.03;100.00;99835.56;3536883;39;102335;-82
2021/08/01 01:07:28;;;;;;;1.67;1.10;;;15.50;96.70;;;14.08;100.00;99827.75;3537575;39;99939;-81
2021/08/01 01:10:00;;;;;;;1.67;1.10;;;15.40;96.70;;;14.20;100.00;99823.53;3535210;39;103243;-81
2021/08/01 01:12:45;;;;;;;1.33;1.00;;;15.40;96.80;;;14.25;100.00;99814.88;3537838;39;101500;-81
2021/08/01 01:15:19;;;;;;;2.38;1.30;;;15.60;96.70;;;14.19;100.00;99812.97;3541718;39;102365;-81
2021/08/01 01:17:53;;;;;;;1.63;1.42;;;16.30;96.90;;;14.19;100.00;99823.72;3553908;39;100011;-80
2021/08/01 01:20:52;;;;;;;1.13;0.90;;;16.10;96.90;;;14.23;100.00;99830.38;3553783;39;103559;-82
2021/08/01 01:23:43;;;;;;;2.17;0.90;;;15.40;96.60;;;14.09;100.00;99826.75;3540740;39;100684;-82
2021/08/01 01:26:38;;;;;;;1.20;1.00;;;15.40;96.70;;;13.80;100.00;99834.91;3537925;39;100119;-81
2021/08/01 01:29:20;;;;;;;1.80;1.03;;;15.30;96.70;;;13.65;100.00;99853.75;3544987;39;100109;-82
2021/08/01 01:32:03;;;;;;;1.90;1.30;;;15.30;96.90;;;13.96;100.00;99861.56;3537763;39;103390;-82
2021/08/01 01:34:45;;;;;;;1.40;1.30;;;15.30;97.10;;;13.96;100.00;99861.56;3539794;39;101599;-82
2021/08/01 01:37:19;;;;;;;1.40;1.20;;;15.20;97.20;;;14.00;100.00;99855.59;3545454;39;100312;-81
2021/08/01 01:39:49;;;;;;;1.45;1.10;;;15.30;97.40;;;14.05;100.00;99854.22;3543654;39;100210;-85
2021/08/01 01:42:38;;;;;;;1.10;1.00;;;15.30;97.40;;;14.00;100.00;99852.91;3537022;39;100593;-81
2021/08/01 01:45:07;;;;;;;1.55;0.90;;;15.30;97.40;;;13.95;100.00;99862.59;3543053;39;102977;-82
2021/08/01 01:47:39;;;;;;;1.40;0.95;;;15.30;97.60;;;13.87;100.00;99878.81;3554751;39;102426;-81
2021/08/01 01:50:08;;;;;;;0.60;0.60;;;15.30;97.50;;;13.77;100.00;99881.00;3547467;39;100140;-82
2021/08/01 01:52:36;;;;;;;1.08;0.93;;;15.30;97.60;;;13.70;100.00;99888.16;3544911;39;103267;-81
2021/08/01 01:55:09;;;;;;;2.15;1.05;;;15.60;97.80;;;13.57;100.00;99900.41;3556813;39;103752;-82
2021/08/01 01:57:40;;;;;;;1.83;1.48;;;15.30;97.80;;;13.35;100.00;99906.72;3553258;39;101800;-82
2021/08/01 02:00:10;;;;;;;4.05;1.33;;;15.30;98.00;;;13.44;100.00;99923.56;3544889;39;100100;-82
2021/08/01 02:02:46;;;;;;;1.75;1.00;;;15.20;98.00;;;13.50;100.00;99925.50;3538664;39;101206;-82
2021/08/01 02:05:43;;;;;;;1.63;1.30;;;15.20;98.00;;;13.57;100.00;99926.44;3546228;39;102368;-81
2021/08/01 02:08:54;;;;;;;1.90;1.20;;;15.90;98.30;;;13.59;100.00;99927.09;3542847;39;100425;-83
2021/08/01 02:11:50;;;;;;;1.97;1.17;;;15.10;98.20;;;13.51;100.00;99925.31;3547419;39;99972;-82
2021/08/01 02:14:36;;;;;;;2.53;1.48;;;15.70;98.50;;;13.41;100.00;99951.66;3544785;39;103091;-82
2021/08/01 02:17:11;;;;;;;4.53;1.37;;;15.10;98.40;;;13.32;100.00;99968.06;3545615;39;103419;-81
2021/08/01 02:19:44;;;;;;;1.70;1.20;;;15.10;98.60;;;13.29;100.00;99993.44;3546421;39;102075;-82
2021/08/01 02:22:14;;;;;;;1.90;1.43;;;15.10;98.80;;;13.24;100.00;100003.88;3554275;39;100267;-81
2021/08/01 02:24:45;;;;;;;1.33;1.23;;;15.00;99.00;;;13.27;100.00;100009.72;3536470;39;102869;-83
2021/08/01 02:27:13;;;;;;;1.58;1.20;;;15.00;99.10;;;13.17;100.00;100011.84;3537030;39;101402;-81
2021/08/01 02:29:41;;;;;;;1.33;1.00;;;14.30;99.20;;;13.15;100.00;100021.09;3543678;39;102532;-81
2021/08/01 02:32:09;;;;;;;6.57;1.63;;;14.90;99.60;;;13.08;100.00;100023.66;3534997;39;100260;-82
2021/08/01 02:34:40;;;;;;;2.80;1.37;;;14.90;99.80;;;13.04;100.00;100019.66;3536889;39;101968;-82
2021/08/01 02:37:14;;;;;;;4.65;1.40;;;14.80;99.90;;;13.03;100.00;100017.97;3536987;39;103159;-83
2021/08/01 02:39:45;;;;;;;1.27;1.17;;;14.80;99.90;;;13.04;100.00;100019.66;3558704;39;101238;-81
2021/08/01 02:42:15;;;;;;;0.90;0.80;;;14.80;99.90;;;12.97;100.00;100029.44;3536414;39;99999;-82
2021/08/01 02:44:44;;;;;;;1.87;1.40;;;14.80;99.90;;;12.90;100.00;100040.06;3543201;39;102408;-80
2021/08/01 02:47:19;;;;;;;2.30;1.67;;;14.70;99.90;;;12.91;100.00;100052.47;3544700;39;103086;-82
2021/08/01 02:49:48;;;;;;;1.30;1.20;;;14.80;99.90;;;12.91;100.00;100049.78;3545624;39;101942;-81
2021/08/01 02:52:21;;;;;;;1.60;1.27;;;14.70;99.90;;;12.93;100.00;100050.44;3548229;39;100133;-81
2021/08/01 02:54:52;;;;;;;1.40;1.30;;;14.70;99.90;;;12.84;100.00;100038.09;3535398;39;103002;-80
2021/08/01 02:57:25;;;;;;;1.50;1.40;;;14.70;99.90;;;12.76;100.00;100032.78;3543791;39;101464;-80
2021/08/01 02:59:54;;;;;;;2.60;1.87;;;14.70;99.90;;;12.63;100.00;100037.88;3543332;39;102280;-80
2021/08/01 03:02:22;;;;;;;1.97;1.50;;;14.60;99.90;;;12.62;100.00;100046.94;3553414;39;100021;-82
2021/08/01 03:04:56;;;;;;;1.50;1.20;;;14.60;99.90;;;12.59;100.00;100060.75;3554014;39;103435;-82
2021/08/01 03:07:26;;;;;;;1.67;1.43;;;14.60;99.90;;;12.57;100.00;100060.91;3545335;39;102865;-82
2021/08/01 03:09:55;;;;;;;1.47;1.37;;;14.90;99.90;;;12.59;100.00;100068.81;3544262;39;102283;-81
2021/08/01 03:12:23;;;;;;;5.37;2.10;;;15.40;99.90;;;12.63;100.00;100075.47;3537443;39;99981;-81
2021/08/01 03:14:50;;;;;;;4.67;1.50;;;14.50;99.90;;;12.70;100.00;100073.75;3536576;39;102246;-81
2021/08/01 03:17:18;;;;;;;1.47;1.30;;;14.50;99.90;;;12.64;100.00;100069.09;3536671;39;101578;-80
2021/08/01 03:19:45;;;;;;;1.43;1.00;;;15.50;99.90;;;12.70;100.00;100065.72;3543965;39;102044;-81
2021/08/01 03:22:14;;;;;;;1.37;1.27;;;15.60;99.90;;;12.66;100.00;100061.69;3570383;39;99221;-81
2021/08/01 03:24:42;;;;;;;1.90;1.30;;;15.10;99.90;;;12.63;100.00;100056.69;3543668;39;102033;-82
2021/08/01 03:27:15;;;;;;;1.27;1.07;;;14.50;99.90;;;12.62;100.00;100048.78;3536949;39;102979;-80
2021/08/01 03:29:44;;;;;;;0.90;0.83;;;14.50;99.90;;;12.75;100.00;100051.75;3535501;39;102706;-82
2021/08/01 03:32:17;;;;;;;2.27;1.67;;;15.00;99.90;;;12.77;100.00;100041.66;3541152;39;100056;-83
2021/08/01 03:34:45;;;;;;;1.57;1.43;;;15.50;99.90;;;12.82;100.00;100045.50;3544964;39;102976;-82
2021/08/01 03:37:12;;;;;;;2.23;1.17;;;14.50;99.90;;;12.78;100.00;100040.66;3546953;39;101674;-80
2021/08/01 03:39:58;;;;;;;1.57;1.20;;;14.50;99.90;;;12.86;100.00;100029.84;3547549;39;99933;-80
2021/08/01 03:42:26;;;;;;;2.03;1.43;;;14.50;99.90;;;12.92;100.00;100018.41;3546511;39;100063;-83
2021/08/01 03:44:53;;;;;;;1.48;1.38;;;14.60;99.90;;;12.88;100.00;100017.91;3547200;39;100227;-82
2021/08/01 03:47:20;;;;;;;1.70;1.27;;;15.50;99.90;;;12.91;100.00;100016.72;3543271;39;103314;-83
2021/08/01 03:49:48;;;;;;;2.80;1.53;;;14.60;99.90;;;12.99;100.00;100005.91;3536266;39;104415;-83
2021/08/01 03:52:15;;;;;;;2.07;1.60;;;14.70;99.90;;;12.91;100.00;100000.63;3537844;39;100137;-81
2021/08/01 03:54:42;;;;;;;2.37;1.07;;;15.20;99.90;;;12.87;100.00;100010.03;3540084;39;101618;-83
2021/08/01 03:57:13;;;;;;;1.30;1.20;;;14.00;99.90;;;12.90;100.00;100017.75;3546030;39;101575;-82
2021/08/01 03:59:41;;;;;;;1.97;1.30;;;14.60;99.90;;;12.96;100.00;100017.03;3553566;39;102187;-81
2021/08/01 04:02:08;;;;;;;1.23;1.13;;;14.60;99.90;;;13.02;100.00;100010.09;3551124;39;100029;-82
2021/08/01 04:04:35;;;;;;;3.17;1.40;;;15.70;99.90;;;12.98;100.00;100017.69;3563869;39;102020;-83
2021/08/01 04:07:02;;;;;;;2.13;1.03;;;15.70;99.90;;;12.93;100.00;100015.53;3564479;39;100230;-81
2021/08/01 04:09:30;;;;;;;3.60;1.30;;;14.90;99.90;;;13.02;100.00;100027.03;3545069;39;100459;-83
2021/08/01 04:11:57;;;;;;;3.33;1.67;;;15.60;99.90;;;12.99;100.00;100024.72;3553286;39;100178;-82
2021/08/01 04:14:25;;;;;;;4.55;1.90;;;14.80;99.90;;;13.08;100.00;100028.19;3546658;39;101202;-83
2021/08/01 04:16:53;;;;;;;2.10;1.40;;;14.80;99.90;;;13.08;100.00;100029.03;3537590;39;100595;-81
2021/08/01 04:19:20;;;;;;;3.63;1.10;;;14.80;99.90;;;13.10;100.00;100034.22;3535901;39;100424;-82
2021/08/01 04:21:48;;;;;;;2.40;1.38;;;14.90;99.90;;;13.08;100.00;100036.25;3536871;39;100116;-84
2021/08/01 04:24:15;;;;;;;1.63;1.52;;;14.90;99.90;;;13.09;100.00;100038.75;3536493;39;100666;-83
2021/08/01 04:26:42;;;;;;;1.80;1.40;;;15.00;99.90;;;13.08;100.00;100036.25;3537565;39;101343;-82
2021/08/01 04:29:09;;;;;;;3.10;1.70;;;16.10;99.90;;;13.15;100.00;100035.34;3544536;39;100658;-83
2021/08/01 04:31:36;;;;;;;2.13;1.48;;;15.00;99.90;;;13.13;100.00;100039.22;3538555;39;100547;-83
2021/08/01 04:34:04;;;;;;;1.37;1.27;;;15.00;99.90;;;13.23;100.00;100040.66;3538932;39;103050;-83
2021/08/01 04:36:31;;;;;;;1.77;1.43;;;16.10;99.90;;;13.21;100.00;100040.03;3536900;39;100589;-83
2021/08/01 04:38:58;;;;;;;1.93;1.37;;;15.10;99.90;;;13.23;100.00;100054.09;3534850;39;102328;-82
2021/08/01 04:41:25;;;;;;;1.02;0.95;;;15.10;99.90;;;13.24;100.00;100044.19;3537272;39;99942;-83
2021/08/01 04:43:52;;;;;;;2.83;1.53;;;15.10;99.90;;;13.29;100.00;100041.78;3543209;39;103592;-83
2021/08/01 04:46:19;;;;;;;4.00;1.13;;;15.20;99.90;;;13.17;100.00;100052.13;3551346;39;101777;-82
2021/08/01 04:48:46;;;;;;;1.88;1.35;;;15.20;99.90;;;13.23;100.00;100051.41;3555717;39;101564;-81
2021/08/01 04:51:14;;;;;;;3.58;1.30;;;15.20;99.90;;;13.28;100.00;100067.81;3543962;39;100058;-83
2021/08/01 04:53:42;;;;;;;2.65;1.45;;;15.20;99.90;;;13.40;100.00;100067.38;3537323;39;102033;-82
2021/08/01 04:56:09;;;;;;;1.90;1.00;;;16.20;99.90;;;13.45;100.00;100065.84;3536810;39;101556;-83
2021/08/01 04:58:36;;;;;;;4.25;1.35;;;15.30;99.90;;;13.46;100.00;100064.00;3544946;39;100404;-84
2021/08/01 05:01:11;;;;;;;1.90;1.52;;;15.30;99.90;;;13.45;100.00;100059.63;3547305;39;100180;-83
2021/08/01 05:03:38;;;;;;;2.22;1.70;;;15.80;99.90;;;13.37;100.00;100078.50;3546993;39;101451;-82
2021/08/01 05:06:05;;;;;;;1.52;1.42;;;15.40;99.90;;;13.31;100.00;100085.44;3547626;39;101130;-82
2021/08/01 05:08:34;;;;;;;2.38;1.23;;;16.10;99.90;;;13.51;100.00;100086.59;3545711;39;102381;-82
2021/08/01 05:11:01;;;;;;;1.65;1.10;;;15.50;99.90;;;13.61;100.00;100075.59;3544861;39;100144;-82
2021/08/01 05:13:28;;;;;;;2.33;1.45;;;15.50;99.90;;;13.63;100.00;100068.19;3541278;39;102906;-81
2021/08/01 05:15:55;;;;;;;1.60;1.33;;;15.40;99.90;;;13.56;100.00;100061.88;3536646;39;100947;-84
2021/08/01 05:18:22;;;;;;;4.43;1.53;;;15.60;99.90;;;13.66;100.00;100070.50;3536277;39;100347;-83
2021/08/01 05:20:49;;;;;;;3.05;1.77;;;15.60;99.90;;;13.81;100.00;100075.91;3545739;39;100237;-81
2021/08/01 05:23:16;;;;;;;2.72;1.45;;;15.70;99.90;;;13.94;100.00;100058.13;3562640;39;99569;-82
2021/08/01 05:25:45;;;;;;;1.33;1.17;;;15.70;99.90;;;14.09;100.00;100050.03;3542218;39;101411;-82
2021/08/01 05:28:12;;;;;;;2.45;1.25;;;15.70;99.90;;;14.03;100.00;100029.25;3548871;39;100997;-83
2021/08/01 05:30:39;;;;;;;1.63;1.50;;;16.20;99.90;;;14.01;100.00;100020.53;3550295;39;99890;-81
2021/08/01 05:33:07;;;;;;;2.97;1.90;;;15.90;99.90;;;13.90;100.00;100019.16;3550286;39;100866;-84
2021/08/01 05:35:36;;;;;;;3.08;1.63;;;15.90;99.90;;;14.11;100.00;100017.53;3551972;39;101344;-82
2021/08/01 05:38:03;;;;;;;1.98;1.60;;;16.00;99.90;;;14.11;100.00;100009.47;3549890;39;100817;-82
2021/08/01 05:40:30;;;;;;;5.32;1.42;;;16.20;99.90;;;14.18;100.00;100027.38;3547010;39;99959;-83
2021/08/01 05:43:00;;;;;;;1.60;1.30;;;16.10;99.90;;;14.29;100.00;100007.22;3559620;39;100829;-83
2021/08/01 05:45:27;;;;;;;4.05;1.88;;;16.10;99.90;;;14.08;100.00;100009.88;3555047;39;102139;-84
2021/08/01 05:47:55;;;;;;;2.63;2.17;;;16.20;99.90;;;14.18;100.00;100003.16;3550323;39;102794;-82
2021/08/01 05:50:22;;;;;;;1.63;1.30;;;16.20;99.90;;;14.17;100.00;99996.13;3553415;39;100180;-81
2021/08/01 05:52:49;;;;;;;1.67;1.20;;;16.30;99.90;;;14.24;100.00;99991.63;3551800;39;100892;-81
2021/08/01 05:55:16;;;;;;;1.05;0.95;;;16.20;99.90;;;14.52;100.00;99990.97;3543892;39;101586;-82
2021/08/01 05:57:43;;;;;;;2.05;1.60;;;16.20;99.90;;;14.47;100.00;99971.84;3553822;39;100672;-84
2021/08/01 06:00:14;;;;;;;1.45;1.33;;;16.30;99.90;;;14.61;100.00;99957.50;3553889;39;100720;-82
2021/08/01 06:02:41;;;;;;;1.92;1.38;;;16.30;99.90;;;14.57;100.00;99942.75;3570156;39;100035;-83
2021/08/01 06:05:09;;;;;;;2.72;1.40;;;16.40;99.90;;;14.69;100.00;99917.00;3569333;39;100269;-82
2021/08/01 06:07:36;;;;;;;1.83;1.13;;;16.40;99.90;;;14.63;100.00;99913.19;3555290;39;100525;-82
2021/08/01 06:10:04;;;;;;;2.28;1.55;;;16.50;99.90;;;14.72;100.00;99903.13;3557731;39;100199;-83
2021/08/01 06:12:31;;;;;;;1.83;1.73;;;16.50;99.90;;;14.75;100.00;99900.03;3545883;39;100688;-84
2021/08/01 06:14:58;;;;;;;1.77;1.55;;;16.60;99.90;;;14.76;100.00;99893.63;3557168;39;100604;-82
2021/08/01 06:17:26;;;;;;;1.90;1.30;;;16.70;99.90;;;14.71;100.00;99891.50;3557929;39;100453;-83
2021/08/01 06:19:55;;;;;;;2.33;1.52;;;16.30;99.90;;;14.68;100.00;99883.00;3554354;39;100067;-83
2021/08/01 06:22:23;;;;;;;4.75;1.65;;;16.70;99.90;;;15.13;100.00;99895.16;3549513;39;100975;-84
2021/08/01 06:24:50;;;;;;;3.80;1.52;;;16.70;99.90;;;14.91;100.00;99891.69;3557333;39;100646;-83
2021/08/01 06:27:18;;;;;;;4.07;1.38;;;16.80;99.90;;;15.00;100.00;99885.13;3556197;39;100540;-83
2021/08/01 06:29:45;;;;;;;3.90;1.52;;;16.80;99.90;;;15.24;100.00;99886.50;3555173;39;100326;-83
2021/08/01 06:32:12;;;;;;;1.38;1.27;;;16.90;99.90;;;15.09;100.00;99888.47;3553643;39;101984;-84
2021/08/01 06:34:40;;;;;;;1.75;1.63;;;17.00;99.90;;;15.12;100.00;99877.31;3568105;39;101298;-81
2021/08/01 06:37:07;;;;;;;2.30;1.63;;;17.00;99.90;;;14.95;100.00;99875.97;3562570;39;100126;-83
2021/08/01 06:39:34;;;;;;;3.28;1.77;;;17.10;99.90;;;15.21;100.00;99881.50;3555977;39;100123;-82
2021/08/01 06:42:01;;;;;;;2.03;1.48;;;17.10;99.90;;;14.94;100.00;99890.47;3546787;39;100868;-83
2021/08/01 06:44:28;;;;;;;1.90;1.38;;;17.10;99.90;;;15.05;100.00;99889.91;3556774;39;101404;-84
2021/08/01 06:46:55;;;;;;;2.38;1.10;;;17.20;99.90;;;15.20;100.00;99890.66;3553234;39;100668;-83
2021/08/01 06:49:23;;;;;;;3.03;1.70;;;17.20;99.90;;;15.28;100.00;99886.97;3560566;39;100206;-84
2021/08/01 06:51:51;;;;;;;2.72;1.92;;;18.20;99.90;;;15.36;100.00;99876.84;3547060;39;103109;-82
2021/08/01 06:54:19;;;;;;;1.55;1.45;;;17.20;99.90;;;15.37;100.00;99866.88;3553472;39;103522;-83
2021/08/01 06:56:45;;;;;;;1.75;1.33;;;18.30;99.90;;;15.43;100.00;99847.22;3556722;39;100214;-83
2021/08/01 06:59:12;;;;;;;1.65;1.10;;;17.30;99.90;;;15.40;100.00;99839.53;3557160;39;100292;-82
2021/08/01 07:01:40;;;;;;;3.10;1.90;;;17.40;99.90;;;15.66;100.00;99849.66;3552917;39;103133;-83
2021/08/01 07:04:07;;;;;;;1.85;1.50;;;17.40;99.90;;;15.60;100.00;99843.19;3555990;39;103146;-83
2021/08/01 07:06:34;;;;;;;2.03;1.63;;;17.50;99.90;;;15.93;100.00;99837.91;3555491;39;102734;-84
2021/08/01 07:09:03;;;;;;;1.90;1.52;;;18.30;99.90;;;15.92;100.00;99843.50;3553416;39;100091;-83
2021/08/01 07:11:30;;;;;;;2.80;1.65;;;17.70;99.90;;;15.99;100.00;99849.75;3552290;39;102568;-84
2021/08/01 07:13:56;;;;;;;2.58;1.38;;;17.80;99.90;;;16.09;100.00;99853.72;3569861;39;102021;-81
2021/08/01 07:16:24;;;;;;;2.22;1.75;;;17.80;99.90;;;16.19;100.00;99844.41;3548806;39;102724;-84
2021/08/01 07:18:51;;;;;;;1.75;1.40;;;18.00;99.90;;;16.13;100.00;99813.66;3554153;39;100150;-82
2021/08/01 07:21:18;;;;;;;2.33;1.40;;;18.00;99.90;;;16.17;100.00;99787.91;3542502;39;101250;-84
2021/08/01 07:23:44;;;;;;;2.88;1.60;;;18.20;99.90;;;16.05;100.00;99782.31;3550532;39;101069;-80
2021/08/01 07:26:13;;;;;;;2.47;1.92;;;18.20;99.90;;;15.98;100.00;99773.34;3547531;39;100535;-81
2021/08/01 07:28:40;;;;;;;2.60;1.92;;;18.30;99.90;;;15.82;100.00;99765.66;3537332;39;100005;-84
2021/08/01 07:31:07;;;;;;;1.60;1.15;;;18.40;99.90;;;16.02;100.00;99774.63;3543583;39;101263;-82
2021/08/01 07:33:34;;;;;;;7.18;1.60;;;18.40;99.90;;;16.08;100.00;99772.94;3533173;39;103358;-83
2021/08/01 07:36:02;;;;;;;3.03;1.77;;;18.50;99.90;;;16.16;100.00;99770.06;3536631;39;102580;-82
2021/08/01 07:38:29;;;;;;;1.33;1.10;;;19.30;99.90;;;16.48;100.00;99779.19;3547664;39;99991;-82
2021/08/01 07:40:56;;;;;;;1.33;1.23;;;18.60;99.70;;;16.10;100.00;99765.47;3546172;39;101464;-83
2021/08/01 07:43:24;;;;;;;13.98;2.10;;;18.60;99.50;;;16.17;100.00;99780.66;3542183;39;101091;-81
2021/08/01 07:45:51;;;;;;;2.30;1.85;;;18.70;99.30;;;16.29;100.00;99790.84;3540779;39;100439;-82
2021/08/01 07:48:18;;;;;;;1.88;1.70;;;18.80;99.30;;;16.67;100.00;99786.50;3532261;39;100547;-83
2021/08/01 07:50:45;;;;;;;1.30;1.20;;;18.80;99.20;;;16.81;100.00;99781.91;3547966;39;100984;-83
2021/08/01 07:53:12;;;;;;;1.17;1.08;;;19.00;99.10;;;16.84;100.00;99785.00;3542750;39;100850;-84
2021/08/01 07:55:42;;;;;;;1.67;1.52;;;19.00;99.20;;;16.92;100.00;99778.56;3545985;39;100568;-83
2021/08/01 07:58:09;;;;;;;1.65;1.30;;;19.10;99.00;;;17.03;100.00;99780.59;3536625;39;100654;-83
2021/08/01 08:00:37;;;;;;;2.03;1.55;;;19.20;98.90;;;16.80;100.00;99772.97;3546252;39;101025;-82
2021/08/01 08:03:04;;;;;;;1.40;1.30;;;19.70;98.80;;;16.96;100.00;99765.44;3534936;39;103047;-83
2021/08/01 08:05:31;;;;;;;2.88;1.75;;;19.30;98.50;;;16.81;100.00;99763.78;3541318;39;100313;-82
2021/08/01 08:07:58;;;;;;;1.75;1.42;;;19.30;98.30;;;16.86;100.00;99763.16;3533603;39;101507;-82
2021/08/01 08:10:25;;;;;;;2.97;1.65;;;19.40;98.10;;;16.66;100.00;99760.53;3540478;39;100750;-83
2021/08/01 08:12:52;;;;;;;2.78;1.33;;;19.40;97.90;;;16.71;100.00;99759.88;3532373;39;102152;-82
2021/08/01 08:15:19;;;;;;;2.20;1.30;;;19.40;97.70;;;16.64;100.00;99770.69;3546774;39;100199;-82
2021/08/01 08:17:48;;;;;;;1.88;1.55;;;19.40;97.60;;;16.85;100.00;99767.75;3545769;39;100289;-83
2021/08/01 08:20:15;;;;;;;1.10;1.00;;;19.40;97.50;;;16.65;100.00;99761.56;3546047;39;100976;-84
2021/08/01 08:22:42;;;;;;;3.38;1.63;;;19.40;97.30;;;16.82;100.00;99753.81;3552225;39;102970;-82
2021/08/01 08:25:11;;;;;;;1.52;1.35;;;19.40;97.20;;;16.97;100.00;99757.09;3556670;39;101263;-82
2021/08/01 08:27:38;;;;;;;1.80;1.63;;;19.30;97.20;;;16.81;100.00;99754.88;3549411;39;100197;-82
2021/08/01 08:30:08;;;;;;;2.42;1.55;;;19.40;97.10;;;17.06;100.00;99755.03;3572921;39;101028;-82
2021/08/01 08:32:35;;;;;;;2.67;1.45;;;19.40;97.10;;;17.07;100.00;99745.84;3565298;39;101766;-81
2021/08/01 08:35:05;;;;;;;3.67;1.45;;;19.80;97.20;;;17.18;100.00;99756.81;3556898;39;100612;-81
2021/08/01 08:37:32;;;;;;;2.92;1.20;;;19.90;97.40;;;16.78;100.00;99769.66;3556060;39;100331;-81
2021/08/01 08:39:59;;;;;;;1.90;1.30;;;19.50;97.40;;;16.69;100.00;99787.09;3546470;39;101217;-83
2021/08/01 08:42:27;;;;;;;1.13;1.00;;;19.50;97.50;;;16.56;100.00;99789.81;3551591;39;100992;-82
2021/08/01 08:44:55;;;;;;;1.48;1.35;;;19.30;97.60;;;16.67;100.00;99810.81;3555312;39;100807;-83
2021/08/01 08:47:26;;;;;;;1.58;1.48;;;19.30;97.90;;;16.78;100.00;99815.56;3555198;39;100294;-81
2021/08/01 08:49:57;;;;;;;1.40;1.30;;;19.30;98.20;;;16.91;100.00;99852.56;3556099;39;101078;-80
2021/08/01 08:52:28;;;;;;;1.58;1.25;;;19.20;99.00;;;16.69;100.00;99864.63;3556138;39;101340;-84
2021/08/01 08:54:59;;;;;;;2.58;1.42;;;19.50;99.60;;;16.66;100.00;99876.69;3555849;39;101059;-81
2021/08/01 08:57:33;;;;;;;3.42;1.58;;;19.10;99.90;;;16.49;100.00;99878.91;3559359;39;100459;-82
2021/08/01 09:00:05;;;;;;;1.90;1.45;;;19.00;99.90;;;16.34;100.00;99885.53;3559152;39;101150;-82
2021/08/01 09:02:34;;;;;;;2.03;1.52;;;19.00;99.90;;;16.33;100.00;99889.25;3551768;39;101311;-83
2021/08/01 09:05:02;;;;;;;1.48;1.38;;;18.80;99.90;;;16.33;100.00;99891.97;3555519;39;102265;-84
2021/08/01 09:07:31;;;;;;;1.55;1.17;;;18.70;99.90;;;16.28;100.00;99891.75;3545792;39;100224;-83
2021/08/01 09:09:58;;;;;;;2.78;1.42;;;18.60;99.90;;;16.43;100.00;99916.72;3561283;39;103429;-83
2021/08/01 09:12:25;;;;;;;2.05;1.55;;;18.40;99.90;;;16.49;100.00;99942.88;3554819;39;103034;-83
2021/08/01 09:15:12;;;;;;;1.52;1.42;;;17.80;99.90;;;16.70;100.00;99947.31;3556206;39;102558;-82
2021/08/01 09:17:41;;;;;;;4.78;1.55;;;18.30;99.90;;;16.59;100.00;99956.81;3558897;39;100165;-82
2021/08/01 09:20:21;;;;;;;2.28;1.75;;;18.20;99.90;;;16.64;100.00;99942.75;3552734;39;103226;-82
2021/08/01 09:23:12;;;;;;;2.10;1.90;;;18.20;99.90;;;16.48;100.00;99933.94;3557359;39;101459;-82
2021/08/01 09:25:42;;;;;;;1.75;1.65;;;18.10;99.90;;;16.69;100.00;99929.47;3547389;39;100203;-81
2021/08/01 09:28:15;;;;;;;2.15;1.90;;;18.00;99.90;;;16.54;100.00;99962.03;3556829;39;100041;-84
2021/08/01 09:30:50;;;;;;;2.53;2.03;;;17.90;99.90;;;16.65;100.00;100001.13;3559211;39;100613;-82
2021/08/01 09:33:32;;;;;;;3.60;2.63;;;17.90;99.90;;;16.61;100.00;100032.25;3553129;39;101038;-84
2021/08/01 09:36:11;;;;;;;2.95;2.13;;;18.00;99.90;;;16.63;100.00;100062.63;3554413;39;102110;-80
2021/08/01 09:38:52;;;;;;;2.65;1.90;;;17.90;99.90;;;16.51;100.00;100103.69;3563363;39;100390;-84
2021/08/01 09:41:22;;;;;;;4.07;2.35;;;17.90;99.90;;;16.60;100.00;100139.47;3557397;39;101411;-83
2021/08/01 09:43:53;;;;;;;4.45;2.75;;;17.90;99.90;;;16.42;100.00;100167.03;3567477;39;101203;-84
2021/08/01 09:46:21;;;;;;;2.13;1.83;;;18.60;99.90;;;16.32;100.00;100190.81;3558010;39;100040;-84
2021/08/01 09:49:10;;;;;;;2.30;2.10;;;17.80;99.90;;;16.43;100.00;100213.78;3567338;39;100124;-86
2021/08/01 09:51:42;;;;;;;4.10;2.83;;;17.80;99.90;;;16.39;100.00;100267.34;3565520;39;102746;-84
2021/08/01 09:54:13;;;;;;;5.13;2.63;;;17.70;99.90;;;16.43;100.00;100309.13;3576358;39;101092;-83
2021/08/01 09:56:52;;;;;;;3.17;2.47;;;17.80;99.90;;;16.39;100.00;100347.50;3578313;39;99755;-84
2021/08/01 09:59:22;;;;;;;3.22;2.58;;;17.70;99.90;;;16.37;100.00;100406.28;3569751;39;100197;-83
2021/08/01 10:01:50;;;;;;;3.35;2.58;;;17.80;99.90;;;16.39;100.00;100448.25;3560883;39;103681;-84
2021/08/01 10:04:26;;;;;;;3.08;2.33;;;17.80;99.90;;;16.48;100.00;100514.63;3575143;39;100933;-85
2021/08/01 10:07:03;;;;;;;3.70;3.10;;;17.80;99.90;;;16.32;100.00;100573.44;3567097;39;100936;-85
2021/08/01 10:09:33;;;;;;;3.83;2.95;;;17.80;99.90;;;16.31;100.00;100605.00;3602371;22;103390;-84
2021/08/01 10:12:01;;;;;;;4.13;3.03;;;17.80;99.90;;;16.25;100.00;100588.72;3659030;22;102462;-85
2021/08/01 10:14:29;;;;;;;3.35;2.05;;;17.70;99.90;;;16.12;100.00;100598.31;3595744;22;101512;-84